Time;durP1;ratioP1;P1;durP2;ratioP2;P2;SDS_P1;SDS_P2;PMS_P1;PMS_P2;Temp;Humidity;BMP_temperature;BMP_pressure;BME280_temperature;BME280_humidity;BME280_pressure;Samples;Min_cycle;Max_cycle;Signal;HPM_P1;HPM_P2
2023/11/05 00:00:35;;;;;;;;;;;;;;;7.08;80.54;99110.47;4846848;29;20027;-70
2023/11/05 00:03:01;;;;;;;;;;;;;;;7.08;80.83;99119.97;4845866;29;19924;-70
2023/11/05 00:05:27;;;;;;;;;;;;;;;7.10;80.80;99131.19;4842692;29;19940;-70
2023/11/05 00:07:53;;;;;;;;;;;;;;;7.14;81.33;99125.13;4843837;29;19970;-70
2023/11/05 00:10:18;;;;;;;;;;;;;;;7.17;81.07;99108.72;4844206;29;19975;-71
2023/11/05 00:12:44;;;;;;;;;;;;;;;7.15;80.74;99093.22;4857991;29;19928;-70
2023/11/05 00:15:10;;;;;;;;;;;;;;;7.17;80.77;99108.72;4858648;29;19938;-70
2023/11/05 00:17:36;;;;;;;;;;;;;;;7.16;80.84;99097.50;4847093;29;19928;-70
2023/11/05 00:20:06;;;;;;;;;;;;;;;7.18;80.93;99097.50;4842040;29;19931;-71
2023/11/05 00:22:32;;;;;;;;;;;;;;;7.16;80.87;99096.63;4833974;29;20117;-71
2023/11/05 00:24:58;;;;;;;;;;;;;;;7.19;81.11;99081.94;4858876;29;20534;-71
2023/11/05 00:27:24;;;;;;;;;;;;;;;7.30;80.91;99091.38;4842832;29;20023;-69
2023/11/05 00:29:50;;;;;;;;;;;;;;;7.37;81.09;99083.56;4857136;29;19928;-70
2023/11/05 00:32:16;;;;;;;;;;;;;;;7.42;80.88;99093.03;4818419;29;19935;-69
2023/11/05 00:34:41;;;;;;;;;;;;;;;7.42;80.67;99078.34;4829910;29;19931;-70
2023/11/05 00:37:07;;;;;;;;;;;;;;;7.42;80.70;99069.72;4856230;29;19928;-69
2023/11/05 00:39:33;;;;;;;;;;;;;;;7.42;80.49;99093.03;4845657;29;19925;-69
2023/11/05 00:41:59;;;;;;;;;;;;;;;7.43;80.56;99089.56;4827814;29;20506;-71
2023/11/05 00:44:25;;;;;;;;;;;;;;;7.44;80.37;99075.75;4842869;29;19924;-71
2023/11/05 00:46:50;;;;;;;;;;;;;;;7.46;80.54;99054.16;4840538;29;19984;-70
2023/11/05 00:49:16;;;;;;;;;;;;;;;7.43;80.53;99038.63;4844348;29;19963;-73
2023/11/05 00:51:42;;;;;;;;;;;;;;;7.44;80.11;99036.91;4815452;29;19932;-70
2023/11/05 00:54:09;;;;;;;;;;;;;;;7.45;80.11;99057.59;4842628;29;19952;-70
2023/11/05 00:56:34;;;;;;;;;;;;;;;7.37;79.79;99049.91;4842543;29;19928;-70
2023/11/05 00:59:02;;;;;;;;;;;;;;;7.39;80.42;99049.91;4857138;29;19984;-71
2023/11/05 01:01:28;;;;;;;;;;;;;;;7.42;80.03;99101.63;4845194;29;19928;-71
2023/11/05 01:03:54;;;;;;;;;;;;;;;7.42;80.29;99061.97;4858014;29;19931;-71
2023/11/05 01:06:19;;;;;;;;;;;;;;;7.36;80.16;99030.06;4846257;29;19952;-71
2023/11/05 01:08:45;;;;;;;;;;;;;;;7.35;80.03;99027.50;4841791;29;19980;-71
2023/11/05 01:11:11;;;;;;;;;;;;;;;7.19;80.25;99011.22;4843243;29;19924;-70
2023/11/05 01:13:37;;;;;;;;;;;;;;;7.37;80.32;99044.72;4846457;29;19956;-70
2023/11/05 01:16:06;;;;;;;;;;;;;;;7.39;80.26;99052.50;4842507;29;19928;-70
2023/11/05 01:18:32;;;;;;;;;;;;;;;7.35;80.13;99028.34;4829101;29;19925;-71
2023/11/05 01:20:58;;;;;;;;;;;;;;;7.35;80.25;99027.50;4834637;29;19931;-71
2023/11/05 01:23:24;;;;;;;;;;;;;;;7.39;80.60;99024.03;4843218;29;19950;-70
2023/11/05 01:25:50;;;;;;;;;;;;;;;7.44;80.12;99030.00;4842167;29;20553;-70
2023/11/05 01:28:16;;;;;;;;;;;;;;;7.44;80.42;99023.97;4832838;29;19936;-70
2023/11/05 01:30:42;;;;;;;;;;;;;;;7.41;80.13;99011.91;4843148;29;19924;-70
2023/11/05 01:33:08;;;;;;;;;;;;;;;7.42;80.46;99018.78;4826837;29;20019;-69
2023/11/05 01:35:36;;;;;;;;;;;;;;;7.43;80.33;99017.94;4840116;29;19955;-70
2023/11/05 01:38:03;;;;;;;;;;;;;;;7.48;80.22;99020.50;4859031;29;19939;-70
2023/11/05 01:40:30;;;;;;;;;;;;;;;7.55;80.21;99058.38;4842393;29;20010;-67
2023/11/05 01:43:15;;;;;;;;;;;;;;;7.57;80.25;99043.69;4845747;29;20327;-70
2023/11/05 01:45:44;;;;;;;;;;;;;;;7.63;80.37;99019.47;4851161;29;20215;-68
2023/11/05 01:48:10;;;;;;;;;;;;;;;7.68;80.16;99051.38;4849834;29;20442;-67
2023/11/05 01:50:35;;;;;;;;;;;;;;;7.67;80.15;99018.56;4859533;29;19947;-68
2023/11/05 01:53:02;;;;;;;;;;;;;;;7.71;80.08;99048.75;4852005;29;19924;-68
2023/11/05 01:55:28;;;;;;;;;;;;;;;7.71;80.22;99041.00;4845940;29;19960;-67
2023/11/05 01:57:54;;;;;;;;;;;;;;;7.70;79.97;99021.16;4854036;29;19971;-67
2023/11/05 02:00:21;;;;;;;;;;;;;;;7.73;80.15;99018.53;4849833;29;19931;-67
2023/11/05 02:02:47;;;;;;;;;;;;;;;7.73;79.89;99022.84;4853359;29;20007;-68
2023/11/05 02:05:13;;;;;;;;;;;;;;;7.78;80.37;98996.03;4848155;29;20391;-68
2023/11/05 02:07:39;;;;;;;;;;;;;;;7.82;80.14;98978.72;4850009;29;20417;-68
2023/11/05 02:10:07;;;;;;;;;;;;;;;7.84;79.93;98979.56;4863595;29;19928;-68
2023/11/05 02:12:33;;;;;;;;;;;;;;;7.84;80.12;98983.00;4847288;29;19959;-68
2023/11/05 02:14:59;;;;;;;;;;;;;;;7.88;79.99;98982.97;4847383;29;19970;-69
2023/11/05 02:17:25;;;;;;;;;;;;;;;7.89;80.12;98995.94;4852701;29;20322;-70
2023/11/05 02:19:52;;;;;;;;;;;;;;;7.89;79.77;99020.94;4832714;29;19928;-69
2023/11/05 02:22:18;;;;;;;;;;;;;;;7.92;79.87;99005.38;4854975;29;20276;-69
2023/11/05 02:24:44;;;;;;;;;;;;;;;7.95;80.12;98989.81;4849978;29;19929;-69
2023/11/05 02:27:11;;;;;;;;;;;;;;;8.03;80.34;98998.38;4848323;29;19935;-69
2023/11/05 02:29:37;;;;;;;;;;;;;;;8.05;79.75;98996.63;4853074;29;20348;-71
2023/11/05 02:32:07;;;;;;;;;;;;;;;8.10;79.90;98997.41;4850763;29;19925;-71
2023/11/05 02:34:44;;;;;;;;;;;;;;;8.10;79.68;98974.06;4830834;29;19932;-70
2023/11/05 02:37:20;;;;;;;;;;;;;;;8.18;79.79;98967.94;4862781;29;19972;-70
2023/11/05 02:39:46;;;;;;;;;;;;;;;8.19;79.60;98962.75;4838181;29;19924;-70
2023/11/05 02:42:37;;;;;;;;;;;;;;;;;;;;;
2023/11/05 02:45:06;;;;;;;;;;;;;;;8.31;79.69;98966.91;4846622;29;19930;-70
2023/11/05 02:47:32;;;;;;;;;;;;;;;8.35;79.32;98962.56;4837299;29;19979;-70
2023/11/05 02:49:58;;;;;;;;;;;;;;;8.38;79.53;98944.38;4844308;29;19956;-70
2023/11/05 02:52:24;;;;;;;;;;;;;;;8.38;79.17;98986.69;4835920;29;19928;-72
2023/11/05 02:54:50;;;;;;;;;;;;;;;8.42;79.58;98948.63;4842613;29;21413;-70
2023/11/05 02:57:20;;;;;;;;;;;;;;;8.42;79.03;98943.44;4841677;29;19936;-70
2023/11/05 02:59:47;;;;;;;;;;;;;;;8.42;78.78;98922.69;4841201;29;20688;-71
2023/11/05 03:02:13;;;;;;;;;;;;;;;8.44;79.06;98926.13;4848251;29;19944;-70
2023/11/05 03:04:39;;;;;;;;;;;;;;;8.48;79.11;98932.16;4849810;29;19925;-70
2023/11/05 03:07:05;;;;;;;;;;;;;;;8.49;78.88;98937.31;4849839;29;19924;-70
2023/11/05 03:09:30;;;;;;;;;;;;;;;8.52;78.85;98939.88;4822697;29;20606;-70
2023/11/05 03:11:56;;;;;;;;;;;;;;;8.53;78.83;98948.50;4858273;29;19974;-71
2023/11/05 03:14:34;;;;;;;;;;;;;;;8.56;78.97;98940.69;4850650;29;19931;-71
2023/11/05 03:17:09;;;;;;;;;;;;;;;8.59;78.92;98946.72;4841202;29;19937;-71
2023/11/05 03:19:35;;;;;;;;;;;;;;;8.61;78.96;98933.69;4842407;29;19989;-71
2023/11/05 03:22:01;;;;;;;;;;;;;;;8.63;78.32;98920.69;4825269;29;19928;-70
2023/11/05 03:24:30;;;;;;;;;;;;;;;8.68;78.75;98918.91;4857600;29;20044;-70
2023/11/05 03:26:56;;;;;;;;;;;;;;;8.74;78.46;98909.28;4844065;29;19927;-71
2023/11/05 03:29:21;;;;;;;;;;;;;;;8.79;78.67;98903.16;4833930;29;20019;-70
2023/11/05 03:31:48;;;;;;;;;;;;;;;8.79;78.50;98929.13;4825455;29;20035;-71
2023/11/05 03:34:14;;;;;;;;;;;;;;;8.76;78.00;98922.25;4842594;29;20419;-70
2023/11/05 03:36:40;;;;;;;;;;;;;;;8.82;78.74;98929.06;4841799;29;19947;-71
2023/11/05 03:39:06;;;;;;;;;;;;;;;8.85;77.97;98910.88;4857458;29;19932;-70
2023/11/05 03:41:32;;;;;;;;;;;;;;;8.88;78.34;98897.84;4827774;29;19924;-71
2023/11/05 03:43:58;;;;;;;;;;;;;;;8.92;78.31;98886.53;4840603;29;19930;-69
2023/11/05 03:46:24;;;;;;;;;;;;;;;8.92;78.22;98896.91;4843672;29;20010;-70
2023/11/05 03:48:50;;;;;;;;;;;;;;;8.96;78.25;98883.00;4844452;29;20179;-72
2023/11/05 03:51:17;;;;;;;;;;;;;;;8.79;78.22;98864.25;4845107;29;20026;-72
2023/11/05 03:53:43;;;;;;;;;;;;;;;9.00;77.91;98895.03;4842462;29;19967;-71
2023/11/05 03:56:09;;;;;;;;;;;;;;;9.03;78.12;98891.56;4843579;29;20421;-71
2023/11/05 03:58:37;;;;;;;;;;;;;;;9.00;77.96;98869.09;4874164;29;20284;-70
2023/11/05 04:01:07;;;;;;;;;;;;;;;9.02;77.73;98871.66;4872388;29;19991;-70
2023/11/05 04:03:33;;;;;;;;;;;;;;;9.03;78.10;98875.97;4856277;29;19930;-68
2023/11/05 04:05:59;;;;;;;;;;;;;;;9.00;77.43;98886.41;4874713;29;19988;-70
2023/11/05 04:08:26;;;;;;;;;;;;;;;9.01;77.71;98888.13;4867374;29;20382;-69
2023/11/05 04:10:52;;;;;;;;;;;;;;;9.03;77.78;98875.97;4856460;29;19927;-70
2023/11/05 04:13:20;;;;;;;;;;;;;;;9.06;77.74;98865.53;4874935;29;19924;-71
2023/11/05 04:15:46;;;;;;;;;;;;;;;9.11;77.82;98876.69;4862600;29;19930;-70
2023/11/05 04:18:11;;;;;;;;;;;;;;;9.11;77.75;98876.69;4855932;29;20007;-72
2023/11/05 04:20:37;;;;;;;;;;;;;;;9.14;77.83;98873.19;4842740;29;20026;-71
2023/11/05 04:23:03;;;;;;;;;;;;;;;9.15;77.32;98851.56;4873039;29;19928;-70
2023/11/05 04:25:29;;;;;;;;;;;;;;;9.15;77.26;98860.19;4857491;29;19930;-70
2023/11/05 04:27:54;;;;;;;;;;;;;;;9.20;77.43;98875.66;4874550;29;19928;-69
2023/11/05 04:30:20;;;;;;;;;;;;;;;9.19;77.60;98859.25;4841288;29;20344;-69
2023/11/05 04:32:46;;;;;;;;;;;;;;;9.24;77.42;98860.91;4858008;29;19945;-70
2023/11/05 04:35:12;;;;;;;;;;;;;;;9.30;77.48;98846.06;4871796;29;20620;-68
2023/11/05 04:37:38;;;;;;;;;;;;;;;9.30;77.10;98847.78;4872190;29;19962;-69
2023/11/05 04:40:09;;;;;;;;;;;;;;;9.32;77.11;98843.44;4872814;29;19928;-70
2023/11/05 04:42:36;;;;;;;;;;;;;;;9.34;76.79;98846.84;4856938;29;19986;-69
2023/11/05 04:45:01;;;;;;;;;;;;;;;9.32;76.84;98827.84;4856749;29;20418;-69
2023/11/05 04:47:28;;;;;;;;;;;;;;;9.36;76.97;98852.88;4843973;29;19977;-69
2023/11/05 04:49:54;;;;;;;;;;;;;;;9.38;77.15;98842.47;4871338;29;19959;-70
2023/11/05 04:52:20;;;;;;;;;;;;;;;9.42;77.36;98847.56;4856829;29;19930;-69
2023/11/05 04:54:46;;;;;;;;;;;;;;;9.47;77.03;98863.94;4872243;29;19962;-70
2023/11/05 04:57:14;;;;;;;;;;;;;;;9.45;77.01;98838.84;4857737;29;19935;-70
2023/11/05 04:59:41;;;;;;;;;;;;;;;9.44;76.55;98848.41;4834648;29;19950;-70
2023/11/05 05:02:07;;;;;;;;;;;;;;;9.44;76.74;98858.78;4836545;29;19967;-70
2023/11/05 05:04:34;;;;;;;;;;;;;;;9.49;76.88;98869.06;4835456;29;19928;-68
2023/11/05 05:06:59;;;;;;;;;;;;;;;9.50;76.69;98852.63;4850738;29;20004;-69
2023/11/05 05:09:25;;;;;;;;;;;;;;;9.54;76.42;98846.47;4835940;29;20031;-70
2023/11/05 05:11:51;;;;;;;;;;;;;;;9.54;76.26;98851.66;4834989;29;20003;-70
2023/11/05 05:14:17;;;;;;;;;;;;;;;9.58;76.57;98839.47;4835470;29;19924;-70
2023/11/05 05:16:43;;;;;;;;;;;;;;;9.57;76.10;98846.41;4834369;29;19936;-69
2023/11/05 05:19:10;;;;;;;;;;;;;;;9.64;76.26;98858.38;4850314;29;19989;-70
2023/11/05 05:21:44;;;;;;;;;;;;;;;9.65;76.11;98860.09;4850425;29;19925;-70
2023/11/05 05:24:10;;;;;;;;;;;;;;;9.67;76.36;98861.81;4850684;29;19947;-70
2023/11/05 05:26:36;;;;;;;;;;;;;;;9.68;75.94;98876.50;4834829;29;19928;-70
2023/11/05 05:29:05;;;;;;;;;;;;;;;9.65;75.87;98854.91;4835414;29;20023;-70
2023/11/05 05:31:31;;;;;;;;;;;;;;;9.69;75.68;98860.03;4835530;29;19940;-71
2023/11/05 05:33:58;;;;;;;;;;;;;;;9.67;75.86;98865.28;4835260;29;19963;-69
2023/11/05 05:36:24;;;;;;;;;;;;;;;9.65;75.10;98844.50;4834151;29;19940;-69
2023/11/05 05:38:50;;;;;;;;;;;;;;;9.67;75.38;98835.81;4836042;29;20337;-68
2023/11/05 05:41:16;;;;;;;;;;;;;;;9.70;75.50;98830.56;4835354;29;20007;-67
2023/11/05 05:43:42;;;;;;;;;;;;;;;9.72;75.28;98836.59;4835420;29;19931;-67
2023/11/05 05:46:09;;;;;;;;;;;;;;;9.71;75.40;98825.34;4834948;29;20276;-68
2023/11/05 05:48:37;;;;;;;;;;;;;;;9.73;75.39;98827.91;4819179;29;19931;-68
2023/11/05 05:51:12;;;;;;;;;;;;;;;9.76;74.90;98822.66;4821111;29;19925;-69
2023/11/05 05:53:38;;;;;;;;;;;;;;;9.77;75.31;98824.38;4835268;29;19924;-70
2023/11/05 05:56:07;;;;;;;;;;;;;;;9.83;75.55;98818.19;4837032;29;19928;-70
2023/11/05 05:58:36;;;;;;;;;;;;;;;9.81;74.97;98802.63;4867161;29;20315;-71
2023/11/05 06:01:04;;;;;;;;;;;;;;;9.80;75.13;98834.72;4841470;29;19963;-70
2023/11/05 06:03:32;;;;;;;;;;;;;;;9.77;75.30;98801.00;4856474;29;20301;-71
2023/11/05 06:05:58;;;;;;;;;;;;;;;9.82;74.82;98800.88;4856849;29;20302;-70
2023/11/05 06:08:27;;;;;;;;;;;;;;;9.83;74.69;98815.59;4856668;29;20371;-71
2023/11/05 06:10:52;;;;;;;;;;;;;;;9.83;74.89;98780.06;4841013;29;19928;-70
2023/11/05 06:13:20;;;;;;;;;;;;;;;9.82;74.32;98798.28;4841576;29;19924;-70
2023/11/05 06:15:46;;;;;;;;;;;;;;;9.86;74.54;98779.97;4855711;29;19924;-71
2023/11/05 06:18:13;;;;;;;;;;;;;;;9.86;74.01;98772.19;4838969;29;20074;-71
2023/11/05 06:20:39;;;;;;;;;;;;;;;9.87;74.25;98771.31;4840428;29;19979;-69
2023/11/05 06:23:05;;;;;;;;;;;;;;;9.94;73.95;98785.88;4840710;29;19923;-70
2023/11/05 06:25:34;;;;;;;;;;;;;;;9.97;74.39;98758.13;4840957;29;19930;-70
2023/11/05 06:28:01;;;;;;;;;;;;;;;10.01;73.98;98752.81;4862495;29;19928;-69
2023/11/05 06:30:30;;;;;;;;;;;;;;;10.04;73.55;98750.13;4859266;29;20398;-69
2023/11/05 06:32:56;;;;;;;;;;;;;;;10.01;73.81;98762.34;4849904;29;19924;-72
2023/11/05 06:35:21;;;;;;;;;;;;;;;10.08;74.00;98797.69;4848658;29;20080;-69
2023/11/05 06:37:47;;;;;;;;;;;;;;;10.13;73.89;98756.00;4841642;29;19938;-69
2023/11/05 06:40:14;;;;;;;;;;;;;;;10.17;74.07;98763.69;4857070;29;19923;-70
2023/11/05 06:42:40;;;;;;;;;;;;;;;10.22;73.56;98758.38;4843347;29;19924;-70
2023/11/05 06:45:07;;;;;;;;;;;;;;;10.32;73.59;98764.22;4876762;29;19930;-69
2023/11/05 06:47:33;;;;;;;;;;;;;;;10.36;73.33;98779.72;4857235;29;20022;-70
2023/11/05 06:49:59;;;;;;;;;;;;;;;10.42;73.27;98770.94;4842872;29;20015;-69
2023/11/05 06:52:28;;;;;;;;;;;;;;;10.50;73.08;98763.78;4858992;29;20026;-70
2023/11/05 06:54:53;;;;;;;;;;;;;;;10.64;72.95;98753.03;4858090;29;19955;-69
2023/11/05 06:57:19;;;;;;;;;;;;;;;10.64;72.45;98758.22;4857893;29;19931;-69
2023/11/05 06:59:45;;;;;;;;;;;;;;;10.71;72.60;98818.75;4843202;29;20425;-69
2023/11/05 07:02:13;;;;;;;;;;;;;;;10.69;72.02;98795.41;4842846;29;21431;-71
2023/11/05 07:04:39;;;;;;;;;;;;;;;10.67;72.02;98763.38;4842828;29;19960;-69
2023/11/05 07:07:05;;;;;;;;;;;;;;;10.63;71.89;98776.50;4860117;29;19923;-71
2023/11/05 07:09:31;;;;;;;;;;;;;;;10.66;71.99;98753.00;4858028;29;19928;-70
2023/11/05 07:11:57;;;;;;;;;;;;;;;10.73;71.55;98782.31;4873958;29;19966;-69
2023/11/05 07:14:22;;;;;;;;;;;;;;;10.78;71.67;98747.47;4859731;29;19924;-67
2023/11/05 07:16:48;;;;;;;;;;;;;;;10.77;71.00;98757.94;4858756;29;19927;-70
2023/11/05 07:19:14;;;;;;;;;;;;;;;10.72;71.17;98741.59;4847757;29;19923;-68
2023/11/05 07:21:43;;;;;;;;;;;;;;;10.73;71.24;98733.72;4857528;29;19928;-68
2023/11/05 07:24:09;;;;;;;;;;;;;;;10.71;70.98;98714.69;4857711;29;20019;-69
2023/11/05 07:26:36;;;;;;;;;;;;;;;10.81;71.29;98723.13;4863544;29;20047;-69
2023/11/05 07:29:01;;;;;;;;;;;;;;;10.82;70.89;98733.50;4852638;29;19934;-70
2023/11/05 07:31:27;;;;;;;;;;;;;;;10.82;70.93;98728.28;4842209;29;19994;-70
2023/11/05 07:33:53;;;;;;;;;;;;;;;10.84;71.01;98725.63;4841841;29;19984;-69
2023/11/05 07:36:20;;;;;;;;;;;;;;;10.87;70.70;98714.28;4861563;29;20387;-69
2023/11/05 07:38:45;;;;;;;;;;;;;;;10.85;70.68;98704.78;4872423;29;19944;-68
2023/11/05 07:41:11;;;;;;;;;;;;;;;10.86;70.16;98718.63;4875818;29;20177;-69
2023/11/05 07:43:39;;;;;;;;;;;;;;;10.78;70.21;98702.41;4873349;29;20022;-71
2023/11/05 07:46:06;;;;;;;;;;;;;;;10.72;70.35;98721.59;4850094;29;19928;-69
2023/11/05 07:48:32;;;;;;;;;;;;;;;10.74;70.46;98706.81;4865715;29;20027;-70
2023/11/05 07:50:58;;;;;;;;;;;;;;;10.75;69.92;98692.06;4842503;29;20023;-69
2023/11/05 07:53:24;;;;;;;;;;;;;;;10.78;70.06;98703.22;4873691;29;20474;-71
2023/11/05 07:55:50;;;;;;;;;;;;;;;10.91;70.37;98701.16;4857231;29;19975;-68
2023/11/05 07:58:19;;;;;;;;;;;;;;;11.06;69.93;98722.44;4832271;29;19977;-68
2023/11/05 08:00:46;;;;;;;;;;;;;;;11.18;70.06;98703.88;4852346;29;19928;-70
2023/11/05 08:03:12;;;;;;;;;;;;;;;11.27;69.99;98720.97;4838597;29;19984;-71
2023/11/05 08:05:41;;;;;;;;;;;;;;;11.35;69.81;98698.19;4827899;29;19928;-70
2023/11/05 08:08:07;;;;;;;;;;;;;;;11.38;68.98;98731.94;4852058;29;19932;-70
2023/11/05 08:10:33;;;;;;;;;;;;;;;11.40;69.36;98735.34;4836097;29;20382;-69
2023/11/05 08:12:59;;;;;;;;;;;;;;;11.38;68.93;98711.09;4836767;29;20063;-68
2023/11/05 08:15:25;;;;;;;;;;;;;;;11.41;69.45;98703.19;4851294;29;19928;-68
2023/11/05 08:17:51;;;;;;;;;;;;;;;11.47;68.90;98710.00;4836007;29;19932;-71
2023/11/05 08:20:18;;;;;;;;;;;;;;;11.49;68.69;98712.53;4835052;29;19924;-71
2023/11/05 08:22:44;;;;;;;;;;;;;;;11.47;68.38;98712.59;4836633;29;19925;-70
2023/11/05 08:25:11;;;;;;;;;;;;;;;11.46;68.52;98726.53;4851943;29;19981;-70
2023/11/05 08:27:39;;;;;;;;;;;;;;;11.41;68.17;98703.19;4820781;29;20307;-71
2023/11/05 08:30:06;;;;;;;;;;;;;;;11.42;68.45;98704.91;4834958;29;20383;-70
2023/11/05 08:32:32;;;;;;;;;;;;;;;11.47;68.21;98693.50;4835116;29;19943;-69
2023/11/05 08:34:58;;;;;;;;;;;;;;;11.55;67.94;98691.53;4851047;29;20064;-70
2023/11/05 08:37:24;;;;;;;;;;;;;;;11.69;67.72;98698.91;4835906;29;20447;-70
2023/11/05 08:39:50;;;;;;;;;;;;;;;11.76;67.71;98674.34;4821438;29;19924;-68
2023/11/05 08:42:17;;;;;;;;;;;;;;;11.87;67.41;98661.84;4835549;29;20018;-68
2023/11/05 08:44:43;;;;;;;;;;;;;;;12.00;67.11;98677.97;4835951;29;19966;-68
2023/11/05 08:47:11;;;;;;;;;;;;;;;12.04;66.73;98676.09;4835955;29;19998;-70
2023/11/05 08:49:37;;;;;;;;;;;;;;;12.04;66.47;98652.63;4848075;29;20400;-71
2023/11/05 08:52:05;;;;;;;;;;;;;;;12.12;66.56;98658.47;4827490;29;20020;-71
2023/11/05 08:54:32;;;;;;;;;;;;;;;12.12;65.98;98602.84;4836759;29;19951;-71
2023/11/05 08:56:58;;;;;;;;;;;;;;;12.16;66.29;98594.84;4826499;29;19928;-70
2023/11/05 08:59:26;;;;;;;;;;;;;;;12.34;66.32;98580.31;4849439;29;20034;-69
2023/11/05 09:01:52;;;;;;;;;;;;;;;13.04;66.03;98577.75;4846373;29;19928;-70
2023/11/05 09:04:18;;;;;;;;;;;;;;;13.53;64.63;98590.69;4842599;29;19924;-69
2023/11/05 09:06:44;;;;;;;;;;;;;;;13.67;64.32;98565.75;4834000;29;19924;-70
2023/11/05 09:09:11;;;;;;;;;;;;;;;14.09;63.13;98571.88;4858722;29;20345;-70
2023/11/05 09:11:37;;;;;;;;;;;;;;;14.45;62.62;98574.63;4844370;29;19924;-70
2023/11/05 09:14:03;;;;;;;;;;;;;;;14.60;61.73;98583.56;4854641;29;19923;-70
2023/11/05 09:16:29;;;;;;;;;;;;;;;14.75;60.76;98582.06;4858875;29;20253;-71
2023/11/05 09:19:01;;;;;;;;;;;;;;;14.82;60.43;98542.50;4845308;29;20344;-71
2023/11/05 09:21:27;;;;;;;;;;;;;;;14.70;60.13;98552.59;4826513;29;19928;-70
2023/11/05 09:24:00;;;;;;;;;;;;;;;14.37;59.57;98588.97;4844026;29;20020;-68
2023/11/05 09:26:26;;;;;;;;;;;;;;;14.06;60.00;98575.44;4843219;29;19924;-73
2023/11/05 09:28:52;;;;;;;;;;;;;;;14.00;59.94;98581.78;4827341;29;19929;-68
2023/11/05 09:31:21;;;;;;;;;;;;;;;14.14;59.90;98594.28;4855399;29;20524;-68
2023/11/05 09:33:47;;;;;;;;;;;;;;;14.34;59.67;98579.50;4828014;29;20380;-69
2023/11/05 09:36:12;;;;;;;;;;;;;;;14.57;59.33;98564.53;4839114;29;20498;-69
2023/11/05 09:38:38;;;;;;;;;;;;;;;14.61;59.22;98579.19;4813747;29;19924;-68
2023/11/05 09:41:04;;;;;;;;;;;;;;;14.60;59.33;98567.03;4827470;29;19924;-68
2023/11/05 09:43:30;;;;;;;;;;;;;;;14.61;58.52;98568.72;4830558;29;19924;-70
2023/11/05 09:45:58;;;;;;;;;;;;;;;14.42;58.48;98577.41;4831266;29;19928;-69
2023/11/05 09:48:24;;;;;;;;;;;;;;;14.21;58.72;98567.88;4841183;29;19984;-70
2023/11/05 09:50:50;;;;;;;;;;;;;;;14.12;58.63;98561.28;4842111;29;19925;-70
2023/11/05 09:53:17;;;;;;;;;;;;;;;14.12;58.68;98567.34;4829276;29;19936;-70
2023/11/05 09:55:46;;;;;;;;;;;;;;;14.31;59.34;98548.22;4836736;29;19932;-71
2023/11/05 09:58:15;;;;;;;;;;;;;;;14.67;58.57;98541.41;4846047;29;19928;-71
2023/11/05 10:00:40;;;;;;;;;;;;;;;14.63;57.73;98535.47;4833599;29;19967;-72
2023/11/05 10:03:08;;;;;;;;;;;;;;;14.72;58.42;98545.53;4837744;29;20528;-72
2023/11/05 10:05:39;;;;;;;;;;;;;;;14.78;58.38;98540.94;4837305;29;20078;-73
2023/11/05 10:08:06;;;;;;;;;;;;;;;14.74;57.58;98522.75;4837492;29;19929;-74
2023/11/05 10:10:33;;;;;;;;;;;;;;;14.79;58.17;98524.31;4807993;29;21413;-72
2023/11/05 10:13:00;;;;;;;;;;;;;;;14.81;57.54;98504.16;4822898;29;20300;-72
2023/11/05 10:15:26;;;;;;;;;;;;;;;14.67;57.75;98504.75;4838423;29;19928;-72
2023/11/05 10:17:55;;;;;;;;;;;;;;;14.55;57.76;98488.72;4821948;29;19935;-70
2023/11/05 10:20:23;;;;;;;;;;;;;;;14.49;58.12;98475.03;4838062;29;19928;-70
2023/11/05 10:23:09;;;;;;;;;;;;;;;14.40;58.20;98489.41;4838404;29;19924;-70
2023/11/05 10:25:35;;;;;;;;;;;;;;;14.22;58.32;98483.25;4839065;29;19924;-71
2023/11/05 10:28:01;;;;;;;;;;;;;;;14.30;58.42;98496.81;4837823;29;19984;-72
2023/11/05 10:30:30;;;;;;;;;;;;;;;14.33;58.00;98522.00;4838704;29;19960;-70
2023/11/05 10:32:56;;;;;;;;;;;;;;;14.25;58.13;98511.84;4838137;29;19928;-72
2023/11/05 10:35:23;;;;;;;;;;;;;;;14.21;58.16;98484.16;4822265;29;19957;-72
2023/11/05 10:37:51;;;;;;;;;;;;;;;14.16;57.87;98518.34;4836911;29;20037;-70
2023/11/05 10:40:17;;;;;;;;;;;;;;;14.01;58.38;98478.06;4836428;29;19928;-69
2023/11/05 10:42:45;;;;;;;;;;;;;;;13.90;58.36;98498.56;4838757;29;19953;-70
2023/11/05 10:45:14;;;;;;;;;;;;;;;13.82;58.72;98511.97;4830833;29;20052;-72
2023/11/05 10:47:40;;;;;;;;;;;;;;;13.77;58.58;98513.94;4822232;29;20356;-70
2023/11/05 10:50:09;;;;;;;;;;;;;;;13.75;59.02;98505.31;4821596;29;20023;-70
2023/11/05 10:52:37;;;;;;;;;;;;;;;13.66;58.82;98483.88;4837858;29;20307;-69
2023/11/05 10:55:06;;;;;;;;;;;;;;;13.74;59.07;98475.72;4837080;29;19925;-71
2023/11/05 10:57:38;;;;;;;;;;;;;;;13.68;58.82;98473.34;4849593;29;19944;-71
2023/11/05 11:00:08;;;;;;;;;;;;;;;13.65;59.33;98497.88;4855527;29;19980;-69
2023/11/05 11:02:38;;;;;;;;;;;;;;;13.58;59.43;98474.66;4855065;29;19935;-69
2023/11/05 11:05:04;;;;;;;;;;;;;;;13.50;59.53;98509.81;4856617;29;20387;-70
2023/11/05 11:07:30;;;;;;;;;;;;;;;13.46;59.68;98530.91;4855645;29;20017;-69
2023/11/05 11:09:58;;;;;;;;;;;;;;;13.44;59.78;98523.13;4839913;29;19924;-71
2023/11/05 11:12:36;;;;;;;;;;;;;;;13.39;60.02;98514.59;4856560;29;19924;-73
2023/11/05 11:15:08;;;;;;;;;;;;;;;13.36;60.05;98520.78;4856391;29;19928;-74
2023/11/05 11:17:37;;;;;;;;;;;;;;;13.31;60.16;98520.13;4856883;29;19932;-79
2023/11/05 11:20:10;;;;;;;;;;;;;;;13.25;60.30;98556.94;4836224;29;19955;-74
2023/11/05 11:22:46;;;;;;;;;;;;;;;13.19;60.31;98558.03;4833943;29;19935;-75
2023/11/05 11:25:16;;;;;;;;;;;;;;;13.16;60.46;98546.88;4836482;29;19928;-74
2023/11/05 11:27:49;;;;;;;;;;;;;;;13.13;60.79;98526.91;4838899;29;20359;-74
2023/11/05 11:30:15;;;;;;;;;;;;;;;13.13;60.75;98513.03;4839629;29;19931;-75
2023/11/05 11:32:41;;;;;;;;;;;;;;;13.07;60.74;98533.25;4824884;29;19935;-75
2023/11/05 11:35:07;;;;;;;;;;;;;;;13.02;60.95;98560.47;4825922;29;19924;-74
2023/11/05 11:37:34;;;;;;;;;;;;;;;12.93;61.06;98528.56;4839337;29;20426;-76
2023/11/05 11:40:00;;;;;;;;;;;;;;;12.88;61.23;98503.53;4855400;29;20074;-71
2023/11/05 11:42:26;;;;;;;;;;;;;;;12.84;61.44;98488.91;4824922;29;19980;-71
2023/11/05 11:44:52;;;;;;;;;;;;;;;12.84;61.45;98502.81;4824909;29;19928;-70
2023/11/05 11:47:23;;;;;;;;;;;;;;;12.84;61.15;98534.16;4840317;29;19924;-72
2023/11/05 11:49:49;;;;;;;;;;;;;;;12.79;61.47;98512.59;4840019;29;19968;-71
2023/11/05 11:52:15;;;;;;;;;;;;;;;12.76;61.84;98531.84;4854715;29;20395;-71
2023/11/05 11:54:44;;;;;;;;;;;;;;;12.73;61.93;98478.88;4840200;29;19946;-71
2023/11/05 11:57:12;;;;;;;;;;;;;;;12.77;61.73;98499.63;4854548;29;19928;-72
2023/11/05 11:59:47;;;;;;;;;;;;;;;12.68;61.81;98494.72;4820852;29;19931;-71
2023/11/05 12:02:13;;;;;;;;;;;;;;;12.67;62.26;98489.59;4860029;29;20008;-79
2023/11/05 12:04:39;;;;;;;;;;;;;;;12.62;62.11;98508.88;4857720;29;19949;-71
2023/11/05 12:07:05;;;;;;;;;;;;;;;12.63;62.50;98474.03;4841079;29;20337;-72
2023/11/05 12:09:32;;;;;;;;;;;;;;;12.58;62.57;98491.63;4839638;29;19938;-73
2023/11/05 12:11:58;;;;;;;;;;;;;;;12.61;62.69;98508.91;4839659;29;20055;-75
2023/11/05 12:14:28;;;;;;;;;;;;;;;12.59;62.66;98502.91;4846191;29;19924;-74
2023/11/05 12:16:54;;;;;;;;;;;;;;;12.59;62.85;98495.94;4842630;29;20311;-72
2023/11/05 12:19:21;;;;;;;;;;;;;;;12.59;62.84;98493.31;4839368;29;20051;-71
2023/11/05 12:21:47;;;;;;;;;;;;;;;12.58;63.06;98515.09;4855561;29;19924;-71
2023/11/05 12:24:16;;;;;;;;;;;;;;;12.58;62.70;98530.75;4839175;29;19928;-71
2023/11/05 12:26:43;;;;;;;;;;;;;;;12.58;62.90;98532.53;4840726;29;19924;-73
2023/11/05 12:29:10;;;;;;;;;;;;;;;12.54;63.08;98523.94;4831597;29;19996;-73
2023/11/05 12:31:36;;;;;;;;;;;;;;;12.49;62.93;98598.94;4840283;29;19924;-76
2023/11/05 12:34:01;;;;;;;;;;;;;;;12.44;63.07;98562.56;4833301;29;20356;-72
2023/11/05 12:36:29;;;;;;;;;;;;;;;12.39;63.13;98546.22;4824155;29;19986;-75
2023/11/05 12:39:01;;;;;;;;;;;;;;;12.33;63.43;98573.41;4840848;29;19924;-72
2023/11/05 12:41:29;;;;;;;;;;;;;;;12.28;63.67;98572.69;4854104;29;19931;-73
2023/11/05 12:44:01;;;;;;;;;;;;;;;12.28;63.67;98577.91;4840297;29;20451;-72
2023/11/05 12:46:32;;;;;;;;;;;;;;;12.31;63.75;98571.75;4825224;29;19929;-72
2023/11/05 12:48:58;;;;;;;;;;;;;;;12.27;63.63;98586.66;4853619;29;19931;-74
2023/11/05 12:51:23;;;;;;;;;;;;;;;12.24;63.81;98592.00;4840323;29;19924;-71